Time;durP1;ratioP1;P1;durP2;ratioP2;P2;SDS_P1;SDS_P2;PMS_P1;PMS_P2;Temp;Humidity;BMP_temperature;BMP_pressure;BME280_temperature;BME280_humidity;BME280_pressure;Samples;Min_cycle;Max_cycle;Signal;HPM_P1;HPM_P2
2022/09/12 00:00:14;;;;;;;44.95;28.35;;;15.40;99.90;;;;;;5091521;28;20024;-71
2022/09/12 00:02:40;;;;;;;55.05;29.35;;;15.40;99.90;;;;;;5112724;27;20032;-71
2022/09/12 00:05:06;;;;;;;47.95;28.15;;;15.40;99.90;;;;;;5095649;27;20042;-72
2022/09/12 00:07:32;;;;;;;52.97;29.05;;;15.40;99.90;;;;;;5099005;28;20420;-70
2022/09/12 00:09:58;;;;;;;50.75;28.65;;;15.40;99.90;;;;;;5110145;28;20453;-70
2022/09/12 00:12:24;;;;;;;58.72;31.40;;;15.40;99.90;;;;;;5122134;27;20480;-70
2022/09/12 00:14:49;;;;;;;50.97;27.88;;;15.40;99.90;;;;;;5123278;27;20091;-71
2022/09/12 00:17:15;;;;;;;55.20;30.50;;;15.30;99.90;;;;;;5126055;27;20465;-71
2022/09/12 00:19:40;;;;;;;51.45;29.70;;;15.30;99.90;;;;;;5106306;27;20110;-71
2022/09/12 00:22:06;;;;;;;62.78;31.52;;;15.30;99.90;;;;;;5091941;28;20032;-71
2022/09/12 00:24:33;;;;;;;53.53;30.90;;;15.30;99.90;;;;;;5109132;28;20046;-70
2022/09/12 00:26:58;;;;;;;56.45;30.98;;;15.30;99.90;;;;;;5115130;27;20035;-70
2022/09/12 00:29:24;;;;;;;51.70;31.48;;;15.40;99.90;;;;;;5094707;27;20709;-71
2022/09/12 00:31:49;;;;;;;55.03;30.80;;;15.40;99.90;;;;;;5125038;27;20556;-71
2022/09/12 00:34:15;;;;;;;36.35;23.77;;;15.40;99.90;;;;;;5109152;27;20041;-71
2022/09/12 00:36:41;;;;;;;38.15;25.15;;;15.30;99.90;;;;;;5094189;27;20036;-69
2022/09/12 00:39:08;;;;;;;37.20;23.10;;;15.30;99.90;;;;;;5110680;27;20020;-70
2022/09/12 00:41:38;;;;;;;29.13;20.45;;;15.30;99.90;;;;;;5110540;27;20019;-70
2022/09/12 00:44:22;;;;;;;32.17;21.23;;;15.20;99.90;;;;;;5113538;27;20035;-71
2022/09/12 00:46:51;;;;;;;29.40;19.25;;;15.10;99.90;;;;;;5105858;27;20046;-71
2022/09/12 00:49:33;;;;;;;30.48;19.63;;;15.00;99.90;;;;;;5112436;27;20487;-70
2022/09/12 00:51:59;;;;;;;29.75;19.95;;;14.90;99.90;;;;;;5090490;27;20027;-70
2022/09/12 00:54:29;;;;;;;32.42;20.17;;;14.80;99.90;;;;;;5109217;27;20031;-70
2022/09/12 00:56:58;;;;;;;29.27;19.40;;;14.70;99.90;;;;;;5102194;27;20500;-70
2022/09/12 00:59:28;;;;;;;43.65;22.58;;;14.60;99.90;;;;;;5119237;27;20027;-70
2022/09/12 01:01:54;;;;;;;;;;;14.60;99.90;;;;;;5106006;27;20066;-70
2022/09/12 01:04:22;;;;;;;33.67;22.00;;;14.50;99.90;;;;;;5105832;28;19920;-71
2022/09/12 01:06:49;;;;;;;33.42;21.50;;;14.40;99.90;;;;;;5090396;28;20480;-71
2022/09/12 01:09:18;;;;;;;37.92;22.73;;;14.40;99.90;;;;;;5108756;27;20039;-70
2022/09/12 01:11:45;;;;;;;36.97;22.38;;;14.30;99.90;;;;;;5103673;28;20028;-71
2022/09/12 01:14:12;;;;;;;38.40;22.25;;;14.30;99.90;;;;;;5102513;27;20043;-71
2022/09/12 01:16:38;;;;;;;37.10;21.63;;;14.30;99.90;;;;;;5093831;28;20058;-69
2022/09/12 01:19:11;;;;;;;31.05;19.70;;;14.30;99.90;;;;;;5104663;27;20454;-69
2022/09/12 01:22:14;;;;;;;33.42;19.60;;;14.20;99.90;;;;;;5104985;27;20083;-70
2022/09/12 01:25:13;;;;;;;34.40;20.50;;;14.10;99.90;;;;;;5102205;27;20042;-72
2022/09/12 01:27:58;;;;;;;32.93;19.70;;;14.10;99.90;;;;;;5105033;27;20062;-70
2022/09/12 01:30:41;;;;;;;47.13;24.00;;;14.20;99.90;;;;;;5089540;27;20278;-70
2022/09/12 01:33:35;;;;;;;43.55;23.15;;;14.20;99.90;;;;;;5110982;27;20511;-70
2022/09/12 01:36:24;;;;;;;47.92;24.15;;;14.20;99.90;;;;;;5089802;28;20033;-72
2022/09/12 01:39:02;;;;;;;44.22;22.13;;;14.20;99.90;;;;;;5103679;27;20492;-70
2022/09/12 01:41:58;;;;;;;34.05;19.67;;;14.20;99.90;;;;;;5092577;28;20028;-70
2022/09/12 01:44:48;;;;;;;31.00;17.55;;;14.20;99.90;;;;;;5084437;28;20127;-70
2022/09/12 01:47:38;;;;;;;40.38;18.77;;;14.20;99.90;;;;;;5109377;28;20395;-71
2022/09/12 01:50:15;;;;;;;49.75;18.55;;;14.10;99.90;;;;;;5095065;28;20088;-71
2022/09/12 01:52:49;;;;;;;35.10;17.88;;;14.10;99.90;;;;;;5097225;28;20028;-71
2022/09/12 01:55:24;;;;;;;47.00;18.40;;;14.00;99.90;;;;;;5113010;27;20109;-70
2022/09/12 01:57:59;;;;;;;38.72;18.20;;;14.00;99.90;;;;;;5107183;28;20091;-71
2022/09/12 02:00:25;;;;;;;43.13;18.38;;;14.00;99.90;;;;;;5101761;28;20130;-70
2022/09/12 02:03:09;;;;;;;36.72;18.02;;;14.00;99.90;;;;;;5104097;28;20027;-72
2022/09/12 02:06:11;;;;;;;32.53;17.33;;;13.90;99.90;;;;;;5101641;28;20118;-70
2022/09/12 02:08:45;;;;;;;32.47;16.92;;;13.90;99.90;;;;;;5041478;28;20621;-70
2022/09/12 02:11:12;;;;;;;29.40;14.82;;;13.90;99.90;;;;;;5042112;28;20479;-71
2022/09/12 02:13:53;;;;;;;34.22;15.95;;;13.90;99.90;;;;;;5027524;28;20040;-70
2022/09/12 02:16:33;;;;;;;39.78;17.77;;;13.90;99.90;;;;;;5050016;28;20029;-70
2022/09/12 02:19:04;;;;;;;36.90;17.17;;;13.90;99.90;;;;;;5043526;28;20043;-72
2022/09/12 02:21:31;;;;;;;36.67;17.20;;;13.90;99.90;;;;;;5044673;28;20144;-70
2022/09/12 02:24:01;;;;;;;40.03;17.77;;;13.90;99.90;;;;;;5044853;28;21117;-71
2022/09/12 02:26:46;;;;;;;42.25;18.40;;;13.90;99.90;;;;;;5044966;28;20037;-70
2022/09/12 02:29:12;;;;;;;34.70;17.00;;;14.00;99.90;;;;;;5044425;28;20021;-70
2022/09/12 02:32:01;;;;;;;40.03;18.23;;;14.00;99.90;;;;;;5026959;28;20058;-70
2022/09/12 02:34:45;;;;;;;39.38;16.98;;;14.00;99.90;;;;;;5032511;28;20078;-72
2022/09/12 02:37:13;;;;;;;40.15;15.70;;;13.90;99.90;;;;;;5045318;28;20040;-71
2022/09/12 02:39:39;;;;;;;35.65;16.13;;;13.90;99.90;;;;;;5043786;28;20115;-70
2022/09/12 02:42:05;;;;;;;37.00;17.35;;;13.80;99.90;;;;;;5045147;28;20064;-70
2022/09/12 02:44:32;;;;;;;33.95;17.10;;;13.80;99.90;;;;;;5079619;28;20043;-70
2022/09/12 02:47:13;;;;;;;38.38;17.80;;;13.80;99.90;;;;;;5105330;28;20477;-71
2022/09/12 02:49:38;;;;;;;38.28;17.58;;;13.80;99.90;;;;;;5089174;28;20188;-71
2022/09/12 02:52:04;;;;;;;38.25;17.17;;;13.80;99.90;;;;;;5105275;28;20541;-71
2022/09/12 02:54:30;;;;;;;35.92;17.30;;;13.90;99.90;;;;;;5110436;27;20028;-70
2022/09/12 02:56:56;;;;;;;35.65;16.52;;;13.80;99.90;;;;;;5113296;27;20412;-70
2022/09/12 02:59:23;;;;;;;40.05;17.02;;;13.90;99.90;;;;;;5110462;27;20035;-70
2022/09/12 03:01:57;;;;;;;29.60;15.55;;;13.80;99.90;;;;;;5104215;27;20038;-70
2022/09/12 03:04:44;;;;;;;32.42;17.48;;;13.90;99.90;;;;;;5106535;28;20042;-72
2022/09/12 03:07:39;;;;;;;31.90;16.02;;;13.90;99.90;;;;;;5109347;27;20023;-70
2022/09/12 03:10:23;;;;;;;32.28;16.15;;;13.90;99.90;;;;;;5076010;28;20131;-70
2022/09/12 03:13:07;;;;;;;28.25;15.82;;;13.90;99.90;;;;;;5091245;27;20127;-70
2022/09/12 03:15:33;;;;;;;32.22;17.35;;;13.90;99.90;;;;;;5100817;27;20027;-70
2022/09/12 03:18:46;;;;;;;28.50;15.50;;;13.90;99.90;;;;;;5091416;28;20081;-71
2022/09/12 03:21:20;;;;;;;33.70;16.25;;;13.90;99.90;;;;;;5067336;27;20044;-70
2022/09/12 03:23:59;;;;;;;29.58;16.20;;;14.00;99.90;;;;;;5114126;27;20043;-70
2022/09/12 03:26:37;;;;;;;23.65;15.00;;;14.00;99.90;;;;;;5105670;27;20039;-72
2022/09/12 03:29:06;;;;;;;24.63;15.02;;;14.00;99.90;;;;;;5105216;27;20092;-70
2022/09/12 03:31:32;;;;;;;27.85;15.63;;;14.00;99.90;;;;;;5107500;27;20058;-70
2022/09/12 03:33:59;;;;;;;26.83;15.75;;;14.00;99.90;;;;;;5119377;27;20039;-70
2022/09/12 03:36:27;;;;;;;28.75;15.27;;;14.00;99.90;;;;;;5116906;27;20419;-71
2022/09/12 03:38:53;;;;;;;24.67;14.77;;;14.00;99.90;;;;;;5106017;27;21024;-70
2022/09/12 03:41:19;;;;;;;25.48;15.63;;;13.90;99.90;;;;;;5092769;27;20031;-70
2022/09/12 03:43:45;;;;;;;23.70;15.98;;;13.90;99.90;;;;;;5100361;27;20906;-70
2022/09/12 03:46:12;;;;;;;28.13;15.30;;;13.90;99.90;;;;;;5106273;27;20372;-70
2022/09/12 03:48:38;;;;;;;25.52;15.15;;;13.90;99.90;;;;;;5087708;27;20032;-70
2022/09/12 03:51:06;;;;;;;23.40;15.18;;;13.90;99.90;;;;;;5090500;27;20038;-70
2022/09/12 03:53:31;;;;;;;22.38;14.70;;;14.00;99.90;;;;;;5085026;27;20042;-71
2022/09/12 03:55:57;;;;;;;21.25;14.23;;;14.00;99.90;;;;;;5117285;27;20035;-70
2022/09/12 03:58:24;;;;;;;23.90;15.32;;;14.00;99.90;;;;;;5105512;27;20047;-69
2022/09/12 04:00:50;;;;;;;20.95;12.90;;;13.90;99.90;;;;;;5102972;27;20028;-71
2022/09/12 04:03:15;;;;;;;24.20;13.15;;;13.90;99.90;;;;;;5110772;27;20031;-70
2022/09/12 04:05:41;;;;;;;22.60;14.93;;;13.90;99.90;;;;;;5112062;27;20062;-70
2022/09/12 04:08:07;;;;;;;23.58;14.80;;;13.80;99.90;;;;;;5115133;27;20041;-70
2022/09/12 04:10:32;;;;;;;22.77;14.55;;;13.80;99.90;;;;;;5102957;27;20051;-71
2022/09/12 04:12:58;;;;;;;19.45;12.90;;;13.80;99.90;;;;;;5106999;27;20130;-70
2022/09/12 04:15:24;;;;;;;20.10;14.02;;;13.70;99.90;;;;;;5103313;27;20600;-70
2022/09/12 04:17:49;;;;;;;23.73;14.93;;;13.80;99.90;;;;;;5108272;27;20092;-71
2022/09/12 04:20:15;;;;;;;23.38;14.02;;;13.80;99.90;;;;;;5093163;28;20126;-69
2022/09/12 04:22:41;;;;;;;20.30;14.55;;;13.80;99.90;;;;;;5106915;27;20035;-70
2022/09/12 04:25:08;;;;;;;20.77;13.32;;;13.70;99.90;;;;;;5107371;28;20037;-70
2022/09/12 04:27:34;;;;;;;21.67;14.68;;;13.70;99.90;;;;;;5108820;27;20477;-70
2022/09/12 04:30:01;;;;;;;21.05;13.50;;;13.70;99.90;;;;;;5115306;27;20042;-70
2022/09/12 04:32:29;;;;;;;19.67;13.90;;;13.80;99.90;;;;;;5116922;27;20481;-70
2022/09/12 04:34:55;;;;;;;16.52;11.98;;;13.80;99.90;;;;;;5106537;27;20077;-69
2022/09/12 04:37:22;;;;;;;18.23;12.88;;;13.80;99.90;;;;;;5109310;27;20027;-72
2022/09/12 04:39:48;;;;;;;17.05;13.02;;;13.80;99.90;;;;;;5089882;28;20042;-69
2022/09/12 04:42:14;;;;;;;16.83;11.50;;;13.70;99.90;;;;;;5091805;27;20046;-69
2022/09/12 04:44:40;;;;;;;18.67;12.73;;;13.80;99.90;;;;;;5087183;28;20055;-70
2022/09/12 04:47:06;;;;;;;19.27;12.70;;;13.70;99.90;;;;;;5107988;27;20119;-70
2022/09/12 04:49:32;;;;;;;16.60;11.27;;;13.70;99.90;;;;;;5090470;28;20031;-70
2022/09/12 04:51:58;;;;;;;17.00;12.10;;;13.70;99.90;;;;;;5104821;28;20096;-69
2022/09/12 04:54:24;;;;;;;19.15;13.45;;;13.80;99.90;;;;;;5078628;28;20131;-70
2022/09/12 04:56:50;;;;;;;21.15;15.40;;;13.70;99.90;;;;;;5099605;27;20036;-71
2022/09/12 04:59:18;;;;;;;23.50;15.57;;;13.70;99.90;;;;;;5111012;27;20066;-70
2022/09/12 05:01:44;;;;;;;22.75;17.30;;;13.70;99.90;;;;;;5112139;27;20471;-70
2022/09/12 05:04:13;;;;;;;22.27;14.70;;;13.80;99.90;;;;;;5096445;27;20028;-69
2022/09/12 05:06:41;;;;;;;20.17;14.00;;;13.80;99.90;;;;;;5087609;27;20039;-71
2022/09/12 05:09:10;;;;;;;20.50;13.88;;;13.80;99.90;;;;;;5088488;28;20048;-71
2022/09/12 05:11:37;;;;;;;20.27;13.80;;;13.90;99.90;;;;;;5091841;27;20027;-71
2022/09/12 05:14:03;;;;;;;19.77;14.88;;;13.90;99.90;;;;;;5088771;28;20040;-70
2022/09/12 05:16:30;;;;;;;18.92;13.43;;;13.80;99.90;;;;;;5113975;27;20024;-70
2022/09/12 05:18:57;;;;;;;17.80;13.45;;;13.80;99.90;;;;;;5081616;27;20039;-70
2022/09/12 05:21:23;;;;;;;21.92;13.85;;;13.80;99.90;;;;;;5120158;27;20489;-71
2022/09/12 05:23:58;;;;;;;19.30;13.48;;;13.80;99.90;;;;;;5113671;27;20031;-71
2022/09/12 05:26:24;;;;;;;19.00;13.60;;;13.80;99.90;;;;;;5100828;27;20525;-71
2022/09/12 05:28:51;;;;;;;17.80;13.60;;;13.80;99.90;;;;;;5116612;27;20079;-72
2022/09/12 05:31:22;;;;;;;19.63;14.00;;;13.80;99.90;;;;;;5092357;27;20492;-71
2022/09/12 05:33:50;;;;;;;18.27;13.15;;;13.80;99.90;;;;;;5124128;27;20114;-70
2022/09/12 05:36:18;;;;;;;19.42;13.80;;;13.80;99.90;;;;;;5096374;27;20055;-69
2022/09/12 05:38:44;;;;;;;18.05;13.88;;;13.80;99.90;;;;;;5110280;27;20088;-69
2022/09/12 05:41:16;;;;;;;18.55;13.52;;;13.80;99.90;;;;;;5108530;27;20032;-70
2022/09/12 05:43:43;;;;;;;18.60;14.90;;;13.80;99.90;;;;;;5091942;28;20051;-70
2022/09/12 05:46:14;;;;;;;20.40;15.23;;;13.80;99.90;;;;;;5097885;27;20819;-71
2022/09/12 05:48:41;;;;;;;17.50;13.75;;;13.80;99.90;;;;;;5099863;28;20050;-70
2022/09/12 05:51:09;;;;;;;19.73;15.48;;;13.80;99.90;;;;;;5121098;27;20035;-71
2022/09/12 05:53:36;;;;;;;19.92;15.82;;;13.90;99.90;;;;;;5110196;27;20834;-72
2022/09/12 05:56:14;;;;;;;19.92;13.10;;;13.90;99.90;;;;;;5095033;28;20362;-70
2022/09/12 05:58:42;;;;;;;20.52;14.32;;;14.00;99.90;;;;;;5096837;28;20035;-70
2022/09/12 06:01:11;;;;;;;19.17;13.45;;;14.00;99.90;;;;;;5105549;28;20053;-69
2022/09/12 06:03:43;;;;;;;19.17;15.05;;;14.10;99.90;;;;;;5085053;28;20069;-70
2022/09/12 06:06:12;;;;;;;17.88;14.20;;;14.10;99.90;;;;;;5121035;28;20812;-70
2022/09/12 06:08:39;;;;;;;22.23;14.93;;;14.20;99.90;;;;;;5106534;28;20035;-70
2022/09/12 06:11:06;;;;;;;20.20;14.90;;;14.30;99.90;;;;;;5113092;28;20511;-70
2022/09/12 06:13:35;;;;;;;21.75;16.30;;;14.40;99.90;;;;;;5106550;28;20035;-70
2022/09/12 06:16:07;;;;;;;19.27;14.60;;;14.50;99.90;;;;;;5084203;28;20024;-70
2022/09/12 06:18:34;;;;;;;20.65;14.65;;;14.60;99.90;;;;;;5106241;28;20196;-70
2022/09/12 06:21:05;;;;;;;19.50;13.20;;;14.70;99.90;;;;;;5106855;28;20751;-70
2022/09/12 06:23:31;;;;;;;19.35;13.20;;;14.90;99.90;;;;;;5106675;28;20067;-70
2022/09/12 06:25:57;;;;;;;20.17;12.52;;;15.00;99.90;;;;;;5106599;28;20119;-70
2022/09/12 06:28:23;;;;;;;16.10;12.00;;;15.10;99.90;;;;;;5111208;28;20067;-72
2022/09/12 06:30:49;;;;;;;15.70;11.85;;;15.20;99.90;;;;;;5111091;27;20110;-70
2022/09/12 06:33:15;;;;;;;16.80;11.60;;;15.30;99.90;;;;;;5080825;27;20820;-69
2022/09/12 06:35:41;;;;;;;14.88;11.32;;;15.40;99.90;;;;;;5111869;28;20042;-70
2022/09/12 06:38:06;;;;;;;13.75;11.25;;;15.50;99.90;;;;;;5112517;27;20554;-69
2022/09/12 06:40:32;;;;;;;13.32;9.98;;;15.70;99.90;;;;;;5086516;27;20028;-70
2022/09/12 06:42:58;;;;;;;14.05;11.68;;;15.80;99.90;;;;;;5113286;27;20118;-70
2022/09/12 06:45:25;;;;;;;14.48;10.02;;;15.90;99.90;;;;;;5081644;28;20048;-70
2022/09/12 06:47:50;;;;;;;14.18;9.20;;;16.00;99.90;;;;;;5109976;27;20077;-69
2022/09/12 06:50:16;;;;;;;11.25;8.48;;;16.10;99.90;;;;;;5110309;27;20065;-69
2022/09/12 06:52:43;;;;;;;11.02;8.82;;;16.20;99.90;;;;;;5113832;27;20431;-70
2022/09/12 06:55:09;;;;;;;12.60;9.27;;;16.30;99.90;;;;;;5119588;27;20036;-70
2022/09/12 06:57:37;;;;;;;11.43;7.88;;;16.40;99.90;;;;;;5111322;27;20115;-69
2022/09/12 07:00:07;;;;;;;10.48;7.90;;;16.40;99.90;;;;;;5096620;28;20035;-70
2022/09/12 07:02:32;;;;;;;10.27;7.25;;;16.40;99.90;;;;;;5107793;27;20032;-69
2022/09/12 07:04:58;;;;;;;10.00;7.25;;;16.50;99.90;;;;;;5111549;27;20042;-69
2022/09/12 07:07:23;;;;;;;10.20;6.78;;;16.50;99.90;;;;;;5111073;27;20047;-70
2022/09/12 07:09:49;;;;;;;20.17;17.77;;;16.60;99.90;;;;;;5110440;27;20024;-71
2022/09/12 07:12:15;;;;;;;17.50;12.68;;;16.60;99.90;;;;;;5088082;27;20394;-70
2022/09/12 07:14:40;;;;;;;10.38;8.00;;;16.70;99.90;;;;;;5114469;27;20028;-70
2022/09/12 07:17:07;;;;;;;12.27;7.00;;;16.80;99.90;;;;;;5110950;27;20036;-70
2022/09/12 07:19:33;;;;;;;10.60;6.45;;;16.90;99.90;;;;;;5111526;27;20030;-70
2022/09/12 07:21:59;;;;;;;10.15;5.68;;;17.10;99.90;;;;;;5104030;27;20031;-70
2022/09/12 07:24:25;;;;;;;8.65;5.47;;;17.20;99.90;;;;;;5119759;27;20080;-70
2022/09/12 07:26:51;;;;;;;8.55;4.55;;;17.40;99.90;;;;;;5111264;28;20047;-70
2022/09/12 07:29:16;;;;;;;7.57;4.55;;;17.60;99.90;;;;;;5092776;28;20031;-70
2022/09/12 07:31:43;;;;;;;6.20;4.07;;;17.70;99.90;;;;;;5111337;28;20114;-70
2022/09/12 07:34:08;;;;;;;7.50;4.47;;;17.90;99.90;;;;;;5111003;28;20046;-70
2022/09/12 07:36:34;;;;;;;6.50;3.97;;;18.10;99.90;;;;;;5092756;28;20032;-71
2022/09/12 07:39:00;;;;;;;7.43;3.28;;;18.30;99.90;;;;;;5110690;28;20035;-70
2022/09/12 07:41:29;;;;;;;6.65;3.08;;;18.40;99.90;;;;;;5092623;28;20074;-71
2022/09/12 07:43:56;;;;;;;6.82;3.55;;;18.50;99.90;;;;;;5111332;28;20035;-71
2022/09/12 07:46:23;;;;;;;7.47;3.42;;;18.70;99.90;;;;;;5110736;28;20060;-71
2022/09/12 07:48:53;;;;;;;6.25;3.10;;;18.80;99.90;;;;;;5110906;28;20031;-70
2022/09/12 07:51:20;;;;;;;4.90;2.40;;;19.00;99.90;;;;;;5110938;28;20033;-71
2022/09/12 07:53:46;;;;;;;6.07;2.50;;;19.20;99.90;;;;;;5110252;28;20040;-71
2022/09/12 07:56:13;;;;;;;5.88;2.80;;;19.30;99.90;;;;;;5110739;28;20100;-70
2022/09/12 07:58:40;;;;;;;6.55;2.70;;;19.40;99.90;;;;;;5092432;28;20027;-71
2022/09/12 08:01:13;;;;;;;5.80;2.55;;;19.40;99.90;;;;;;5110750;28;20049;-70
2022/09/12 08:03:40;;;;;;;6.00;2.40;;;19.50;99.90;;;;;;5110517;28;20050;-72
2022/09/12 08:06:23;;;;;;;6.25;2.30;;;19.60;99.90;;;;;;5092380;28;20537;-70
2022/09/12 08:08:49;;;;;;;4.38;2.10;;;19.60;99.90;;;;;;5092425;28;20298;-71
2022/09/12 08:11:18;;;;;;;6.20;2.08;;;19.70;99.90;;;;;;5092260;28;20031;-71
2022/09/12 08:13:44;;;;;;;6.53;2.30;;;19.80;99.90;;;;;;5110424;28;20553;-70
2022/09/12 08:16:13;;;;;;;5.97;2.05;;;19.80;99.90;;;;;;5110849;28;20043;-71
2022/09/12 08:18:39;;;;;;;4.22;1.80;;;19.90;99.90;;;;;;5092080;28;20124;-72
2022/09/12 08:21:16;;;;;;;5.35;1.98;;;20.00;99.90;;;;;;5110092;28;20033;-71
2022/09/12 08:23:43;;;;;;;3.60;1.50;;;20.20;99.90;;;;;;5091839;28;20440;-71
2022/09/12 08:26:10;;;;;;;4.53;1.80;;;20.20;99.90;;;;;;5110078;28;20172;-70
2022/09/12 08:28:39;;;;;;;5.18;1.67;;;20.40;99.90;;;;;;5109870;28;20036;-71
2022/09/12 08:31:11;;;;;;;3.30;1.50;;;20.60;99.90;;;;;;5110365;28;20035;-71
2022/09/12 08:33:37;;;;;;;4.22;1.60;;;20.70;99.90;;;;;;5110274;28;20035;-71
2022/09/12 08:36:05;;;;;;;4.60;1.70;;;20.80;99.90;;;;;;5109684;28;20031;-70
2022/09/12 08:38:31;;;;;;;4.55;1.50;;;21.00;99.90;;;;;;5091378;28;20031;-71
2022/09/12 08:41:02;;;;;;;5.00;1.42;;;21.10;99.90;;;;;;5109830;28;20031;-70
2022/09/12 08:43:53;;;;;;;3.72;1.10;;;21.30;99.90;;;;;;5091048;28;20028;-71
2022/09/12 08:46:37;;;;;;;4.15;1.30;;;21.40;99.90;;;;;;5109615;28;20516;-71
2022/09/12 08:49:04;;;;;;;5.05;1.58;;;21.40;99.90;;;;;;5109047;28;20443;-72
2022/09/12 08:51:33;;;;;;;6.32;1.30;;;21.50;99.90;;;;;;5109020;28;20023;-70
2022/09/12 08:54:01;;;;;;;4.60;1.33;;;21.50;99.90;;;;;;5109588;28;20027;-72
2022/09/12 08:56:31;;;;;;;5.85;1.50;;;21.60;99.90;;;;;;5109343;28;20066;-73
2022/09/12 08:58:56;;;;;;;4.53;1.23;;;21.60;99.90;;;;;;5091283;28;20035;-71
2022/09/12 09:01:39;;;;;;;4.68;1.30;;;21.60;99.90;;;;;;5109494;28;20478;-71
2022/09/12 09:04:05;;;;;;;2.95;1.20;;;21.60;99.90;;;;;;5109236;28;20042;-71
2022/09/12 09:07:05;;;;;;;2.50;1.13;;;21.70;99.90;;;;;;5090583;28;20027;-71
2022/09/12 09:09:55;;;;;;;5.18;1.20;;;21.90;99.90;;;;;;5090890;28;20034;-72
2022/09/12 09:12:39;;;;;;;6.80;1.42;;;22.00;99.90;;;;;;5090700;28;20141;-71
2022/09/12 09:15:21;;;;;;;4.15;1.25;;;22.20;99.90;;;;;;5108787;28;20024;-73
2022/09/12 09:18:22;;;;;;;3.95;1.20;;;22.30;99.90;;;;;;5109135;28;20067;-71
2022/09/12 09:20:55;;;;;;;6.43;1.52;;;22.50;99.90;;;;;;5082680;28;20118;-72
2022/09/12 09:23:43;;;;;;;5.78;1.30;;;22.70;99.90;;;;;;5090864;28;20027;-70
2022/09/12 09:26:48;;;;;;;5.57;1.40;;;22.90;99.90;;;;;;5108844;28;20438;-71
2022/09/12 09:29:17;;;;;;;2.40;0.98;;;23.00;99.90;;;;;;5094139;28;20268;-72
2022/09/12 09:31:48;;;;;;;3.03;1.00;;;22.90;99.90;;;;;;5108954;28;20031;-71
2022/09/12 09:34:30;;;;;;;3.70;1.27;;;22.80;99.90;;;;;;5108683;28;20032;-71
2022/09/12 09:37:39;;;;;;;3.33;1.25;;;22.60;99.90;;;;;;5108773;28;20405;-71
2022/09/12 09:40:16;;;;;;;;;;;22.30;99.90;;;;;;5090948;28;20034;-71
2022/09/12 09:43:09;;;;;;;5.63;1.70;;;22.30;99.90;;;;;;5108709;28;19908;-71
2022/09/12 09:45:36;;;;;;;5.88;1.50;;;22.30;99.90;;;;;;5108498;28;20066;-71
2022/09/12 09:48:17;;;;;;;4.53;1.20;;;22.30;99.90;;;;;;5089914;28;20038;-71
2022/09/12 09:50:44;;;;;;;3.58;1.00;;;22.20;99.90;;;;;;5108804;28;20031;-71
2022/09/12 09:53:25;;;;;;;6.15;1.20;;;22.10;99.90;;;;;;5108408;28;20449;-71
2022/09/12 09:55:54;;;;;;;4.22;1.38;;;22.00;99.90;;;;;;5108599;28;20024;-71
2022/09/12 09:58:34;;;;;;;3.38;1.05;;;22.00;99.90;;;;;;5092501;28;20028;-71
2022/09/12 10:01:10;;;;;;;7.07;1.38;;;22.00;99.90;;;;;;5108251;28;20031;-70
2022/09/12 10:03:39;;;;;;;2.97;1.25;;;22.10;99.90;;;;;;5108258;28;20813;-71
2022/09/12 10:06:19;;;;;;;4.93;1.35;;;22.20;99.90;;;;;;5089940;28;20032;-72
2022/09/12 10:08:46;;;;;;;4.15;1.05;;;22.30;99.90;;;;;;5108298;28;20044;-71
2022/09/12 10:11:14;;;;;;;5.05;1.40;;;22.60;99.90;;;;;;5108503;28;20054;-71
2022/09/12 10:13:50;;;;;;;4.97;1.57;;;22.80;99.90;;;;;;5089929;28;20028;-71
2022/09/12 10:16:18;;;;;;;3.42;1.30;;;23.10;99.90;;;;;;5108220;28;20099;-71
2022/09/12 10:18:44;;;;;;;3.47;1.30;;;23.40;99.90;;;;;;5089638;28;20054;-71
2022/09/12 10:21:36;;;;;;;5.15;1.33;;;23.50;99.90;;;;;;5089776;28;20572;-71
2022/09/12 10:24:17;;;;;;;4.35;1.60;;;23.60;99.90;;;;;;5108230;28;20040;-71
2022/09/12 10:26:49;;;;;;;6.47;1.42;;;23.70;99.90;;;;;;5108319;28;20039;-71
2022/09/12 10:29:31;;;;;;;4.70;1.60;;;23.70;99.90;;;;;;5108444;28;20024;-72
2022/09/12 10:32:00;;;;;;;2.95;1.08;;;23.60;99.90;;;;;;5089774;28;20034;-72
2022/09/12 10:34:54;;;;;;;3.72;1.35;;;23.50;99.90;;;;;;5108079;28;20401;-72
2022/09/12 10:37:30;;;;;;;2.72;1.00;;;23.40;99.90;;;;;;5102771;28;20043;-72
2022/09/12 10:39:58;;;;;;;2.95;1.02;;;23.30;98.90;;;;;;5107985;28;20054;-72
2022/09/12 10:42:47;;;;;;;3.55;1.23;;;23.20;99.90;;;;;;5108199;28;20051;-71
2022/09/12 10:45:29;;;;;;;3.78;1.13;;;23.20;99.90;;;;;;5107565;28;20405;-72
2022/09/12 10:47:58;;;;;;;3.92;1.48;;;23.00;99.90;;;;;;5107853;28;20031;-72
2022/09/12 10:50:37;;;;;;;2.83;1.20;;;22.90;99.90;;;;;;5089459;28;20027;-72
2022/09/12 10:53:21;;;;;;;3.63;1.35;;;22.80;99.90;;;;;;5107816;28;20630;-72
2022/09/12 10:56:07;;;;;;;4.35;1.30;;;22.80;99.90;;;;;;5108069;28;20036;-72
2022/09/12 10:58:58;;;;;;;3.03;1.10;;;22.80;99.90;;;;;;5107930;28;20032;-72
2022/09/12 11:01:35;;;;;;;3.85;1.10;;;22.80;99.90;;;;;;5107668;28;20027;-72
2022/09/12 11:04:22;;;;;;;5.28;1.02;;;22.90;99.90;;;;;;5107601;28;20427;-73
2022/09/12 11:07:03;;;;;;;3.92;1.40;;;22.90;99.00;;;;;;5107896;28;20054;-72
2022/09/12 11:09:37;;;;;;;3.33;1.00;;;22.90;99.90;;;;;;5107800;28;20036;-73
2022/09/12 11:12:06;;;;;;;4.25;1.10;;;23.00;99.90;;;;;;5108081;28;20470;-72
2022/09/12 11:14:34;;;;;;;4.00;1.20;;;23.00;99.70;;;;;;5111066;28;20042;-72
2022/09/12 11:17:12;;;;;;;7.80;1.55;;;23.00;99.10;;;;;;5092753;28;20401;-73
2022/09/12 11:20:02;;;;;;;10.07;1.90;;;23.00;99.90;;;;;;5111420;28;20038;-73
2022/09/12 11:22:38;;;;;;;2.25;0.82;;;22.90;99.90;;;;;;5111569;28;20155;-73
2022/09/12 11:25:33;;;;;;;5.85;1.33;;;22.80;99.40;;;;;;5110669;28;20034;-72
2022/09/12 11:28:14;;;;;;;3.05;1.08;;;22.90;99.90;;;;;;5092429;28;20036;-72
2022/09/12 11:31:09;;;;;;;8.32;1.80;;;23.00;99.90;;;;;;5111081;28;20054;-73
2022/09/12 11:33:46;;;;;;;5.13;1.10;;;23.20;99.90;;;;;;5111107;28;20076;-73
2022/09/12 11:36:32;;;;;;;4.85;1.23;;;23.40;99.90;;;;;;5111060;28;20032;-72
2022/09/12 11:39:02;;;;;;;2.72;0.90;;;24.70;99.60;;;;;;5111110;28;20028;-72
2022/09/12 11:41:36;;;;;;;4.05;1.20;;;26.30;96.40;;;;;;5111137;28;20030;-73
2022/09/12 11:44:10;;;;;;;2.53;1.08;;;26.30;94.00;;;;;;5092401;28;20274;-74
2022/09/12 11:46:38;;;;;;;3.80;1.38;;;26.50;93.50;;;;;;5092361;28;20109;-72
2022/09/12 11:49:14;;;;;;;2.78;1.10;;;27.80;90.20;;;;;;5111279;28;20099;-73
2022/09/12 11:52:07;;;;;;;3.50;1.02;;;27.50;89.10;;;;;;5110645;28;20077;-73
2022/09/12 11:54:37;;;;;;;3.20;1.05;;;27.00;82.80;;;;;;5110320;28;20030;-73
2022/09/12 11:57:24;;;;;;;3.13;1.05;;;26.40;84.60;;;;;;5110403;28;20043;-73
2022/09/12 12:00:06;;;;;;;1.92;0.75;;;26.20;83.80;;;;;;5110563;28;20046;-73
2022/09/12 12:02:47;;;;;;;3.03;0.98;;;26.70;82.70;;;;;;5110805;28;20028;-72
2022/09/12 12:05:32;;;;;;;3.97;1.10;;;26.80;77.90;;;;;;5110485;28;20046;-72
2022/09/12 12:08:01;;;;;;;2.65;0.85;;;26.40;81.70;;;;;;5110814;28;20031;-73
2022/09/12 12:10:48;;;;;;;2.53;0.70;;;26.10;82.30;;;;;;5110752;28;20020;-73
2022/09/12 12:13:16;;;;;;;3.33;0.90;;;25.70;83.10;;;;;;5108826;28;20390;-73
2022/09/12 12:15:56;;;;;;;3.90;0.80;;;25.50;85.50;;;;;;5108852;28;20054;-73
2022/09/12 12:18:29;;;;;;;2.60;0.73;;;25.50;86.50;;;;;;5110837;28;20047;-72
2022/09/12 12:21:15;;;;;;;3.30;0.80;;;25.40;79.20;;;;;;5110508;27;20039;-74
2022/09/12 12:24:03;;;;;;;1.95;0.80;;;25.30;78.40;;;;;;5100870;28;20031;-74
2022/09/12 12:26:38;;;;;;;1.92;0.93;;;25.20;79.80;;;;;;5089340;28;20035;-73
2022/09/12 12:29:30;;;;;;;3.50;1.00;;;25.10;82.70;;;;;;5089337;28;20039;-74
2022/09/12 12:31:58;;;;;;;3.03;0.80;;;25.10;84.80;;;;;;5080987;28;20067;-73
2022/09/12 12:34:32;;;;;;;4.00;0.90;;;25.10;83.10;;;;;;5089639;28;20452;-73
2022/09/12 12:37:18;;;;;;;2.72;0.80;;;25.20;86.30;;;;;;5089679;28;20040;-73
2022/09/12 12:39:46;;;;;;;2.88;0.85;;;25.20;84.70;;;;;;5089867;28;20036;-73
2022/09/12 12:42:34;;;;;;;2.63;0.90;;;25.20;79.40;;;;;;5089357;28;20032;-72
2022/09/12 12:44:59;;;;;;;3.33;0.98;;;25.20;78.10;;;;;;5089465;28;20044;-73
2022/09/12 12:47:30;;;;;;;2.63;0.80;;;25.30;81.00;;;;;;5095500;28;20032;-73
2022/09/12 12:50:12;;;;;;;1.80;0.70;;;25.30;77.60;;;;;;5105022;28;20046;-75
2022/09/12 12:53:00;;;;;;;2.25;0.80;;;25.50;72.40;;;;;;5096195;28;20058;-73
2022/09/12 12:55:32;;;;;;;1.77;0.80;;;25.50;74.00;;;;;;5104258;28;20081;-75
2022/09/12 12:58:03;;;;;;;4.78;0.90;;;25.40;77.00;;;;;;5103589;27;20032;-71
2022/09/12 13:00:38;;;;;;;2.25;0.75;;;25.30;73.60;;;;;;5090703;28;20027;-72
2022/09/12 13:03:05;;;;;;;2.78;0.80;;;25.30;76.40;;;;;;5109196;28;20134;-71